Portada
METAR-TAF:

METAR-TAF

Aeropuertos :

Aeropuerto de Vigo

Vigo, España

latitud: 42-13N, longitud: 008-38W, altitud: 264 m

Observación

El informe se hizo hace 10 minutos, a las 07:00 UTC
Viento 4 kt del norte-noreste, variando entre noroeste y este
Temperatura 13°C
Humedad 77%
Presión 1022 hPa
Visibilidad 10 km o más
sin nubes por debajo de 1500 m y sin presencia de cumulonimbus.

METAR: LEVX 240700Z 03004KT 320V090 CAVOK 13/09 Q1022 NOSIG

Hora: 09:10 (07:10 UTC)

Pronóstico

El informe se hizo hace 2 horas y 10 minutos, a las 05:00 UTC
Pronóstico válido del 24 a las 06 UTC al 25 a las 06 UTC
Viento 5 kt del norte
Visibilidad 10 km o más
sin nubes por debajo de 1500 m y sin presencia de cumulonimbus.
Temporalmente
del 24 a las 11 UTC al 24 a las 19 UTC
Viento 15 kt del norte con ráfagas de 25 kt

TAF: LEVX 240500Z 2406/2506 36005KT CAVOK TX20/2415Z TN09/2406Z TEMPO 2411/2419 01015G25KT

Observaciones y pronósticos meteorológicos de más de 4000 aeropuertos (mensajes METAR y TAF).

Los puntos amarillos y rojos representan las estaciones disponibles.

Ponga el ratón en el punto deseado para ver el nombre de la estación.

Haga clic para ver las observaciones y los pronósticos meteorológicos.

Para cambiar el mapa : haga clic en los botones verdes con una cruz de color negro para hacer un zoom, en el botón verde con un guión para alejar o en las flechas verdes para mapas adyacentes.


METAR-TAF: